createdAt,value
2023-01-09T00:01:00.881Z,93.70
2023-01-09T00:03:27.317Z,93.89
2023-01-09T00:05:53.765Z,93.21
2023-01-09T00:08:20.255Z,93.32
2023-01-09T00:10:49.095Z,93.15
2023-01-09T00:13:15.733Z,93.01
2023-01-09T00:15:42.189Z,92.45
2023-01-09T00:18:08.799Z,92.25
2023-01-09T00:20:35.837Z,92.23
2023-01-09T00:23:02.338Z,92.60
2023-01-09T00:25:28.873Z,92.75
2023-01-09T00:27:55.297Z,93.07
2023-01-09T00:30:21.671Z,93.16
2023-01-09T00:32:48.266Z,93.33
2023-01-09T00:35:17.481Z,93.06
2023-01-09T00:37:44.179Z,93.14
2023-01-09T00:40:13.437Z,93.42
2023-01-09T00:42:40.332Z,93.54
2023-01-09T00:45:16.668Z,93.46
2023-01-09T00:47:48.397Z,93.09
2023-01-09T00:50:21.059Z,93.17
2023-01-09T00:52:49.361Z,93.01
2023-01-09T00:55:16.350Z,93.14
2023-01-09T01:00:36.025Z,93.18
2023-01-09T01:03:02.807Z,93.15
2023-01-09T01:05:47.916Z,92.78
2023-01-09T01:08:16.603Z,92.11
2023-01-09T01:10:44.157Z,91.93
2023-01-09T01:13:11.439Z,92.17
2023-01-09T01:15:42.494Z,91.94
2023-01-09T01:18:11.951Z,91.63
2023-01-09T01:20:43.446Z,91.10
2023-01-09T01:23:10.214Z,90.15
2023-01-09T01:25:41.228Z,88.97
2023-01-09T01:28:08.470Z,88.35
2023-01-09T01:30:40.586Z,88.54
2023-01-09T01:33:08.586Z,88.31
2023-01-09T01:35:35.575Z,88.09
2023-01-09T01:38:02.511Z,88.16
2023-01-09T01:40:30.125Z,88.54
2023-01-09T01:42:57.782Z,88.33
2023-01-09T01:45:29.723Z,87.95
2023-01-09T01:48:10.798Z,87.84
2023-01-09T01:50:49.410Z,86.98
2023-01-09T01:53:28.364Z,87.34
2023-01-09T01:56:22.445Z,87.42
2023-01-09T01:59:18.118Z,87.65
2023-01-09T02:01:49.133Z,87.24
2023-01-09T02:04:16.439Z,86.91
2023-01-09T02:06:46.635Z,86.61
2023-01-09T02:09:15.290Z,86.74
2023-01-09T02:11:46.306Z,86.19
2023-01-09T02:14:14.120Z,86.70
2023-01-09T02:17:16.407Z,86.31
2023-01-09T02:20:24.952Z,86.10
2023-01-09T02:22:54.185Z,86.36
2023-01-09T02:25:58.372Z,85.86
2023-01-09T02:28:43.043Z,85.72
2023-01-09T02:31:28.143Z,85.86
2023-01-09T02:33:59.854Z,85.64
2023-01-09T02:36:37.225Z,85.92
2023-01-09T02:39:18.631Z,86.14
2023-01-09T02:41:55.345Z,86.27
2023-01-09T02:44:27.811Z,86.25
2023-01-09T02:47:06.689Z,86.19
2023-01-09T02:49:37.162Z,86.60
2023-01-09T02:52:12.759Z,86.66
2023-01-09T02:55:01.256Z,86.40
2023-01-09T02:57:42.953Z,85.82
2023-01-09T03:00:44.289Z,84.48
2023-01-09T03:03:18.264Z,84.11
2023-01-09T03:06:34.228Z,83.63
2023-01-09T03:09:06.895Z,83.15
2023-01-09T03:11:39.336Z,83.31
2023-01-09T03:14:13.225Z,83.97
2023-01-09T03:16:40.422Z,83.57
2023-01-09T03:19:12.931Z,84.09
2023-01-09T03:21:40.803Z,84.08
2023-01-09T03:24:07.409Z,84.28
2023-01-09T03:26:34.008Z,84.67
2023-01-09T03:29:01.078Z,84.56
2023-01-09T03:31:27.708Z,85.22
2023-01-09T03:33:54.229Z,85.42
2023-01-09T03:36:22.002Z,85.64
2023-01-09T03:38:48.970Z,85.26
2023-01-09T03:41:15.488Z,83.43
2023-01-09T03:43:41.921Z,82.51
2023-01-09T03:46:09.945Z,82.04
2023-01-09T03:48:36.469Z,82.30
2023-01-09T03:51:02.990Z,82.15
2023-01-09T03:53:29.440Z,82.11
2023-01-09T03:55:57.257Z,82.17
2023-01-09T03:58:24.584Z,82.67
2023-01-09T04:00:52.388Z,82.54
2023-01-09T04:03:21.045Z,83.72
2023-01-09T04:05:49.806Z,84.26
2023-01-09T04:08:16.877Z,84.35
2023-01-09T04:10:47.949Z,83.92
2023-01-09T04:13:14.407Z,83.56
2023-01-09T04:15:41.033Z,84.14
2023-01-09T04:18:07.842Z,84.12
2023-01-09T04:20:34.866Z,83.55
2023-01-09T04:23:02.111Z,83.27
2023-01-09T04:25:28.626Z,83.25
2023-01-09T04:27:55.056Z,83.32
2023-01-09T04:30:21.641Z,83.48
2023-01-09T04:32:48.226Z,83.88
2023-01-09T04:35:14.803Z,84.20
2023-01-09T04:37:41.283Z,84.41
2023-01-09T04:40:12.042Z,84.49
2023-01-09T04:42:39.445Z,84.13
2023-01-09T04:45:07.630Z,84.09
2023-01-09T04:47:34.109Z,84.25
2023-01-09T04:50:01.254Z,83.97
2023-01-09T04:52:28.262Z,83.70
2023-01-09T04:54:54.642Z,83.62
2023-01-09T04:57:21.364Z,83.37
2023-01-09T04:59:47.815Z,83.71
2023-01-09T05:02:14.455Z,83.98
2023-01-09T05:04:41.014Z,84.43
2023-01-09T05:07:07.768Z,84.97
2023-01-09T05:09:34.269Z,84.95
2023-01-09T05:12:01.854Z,84.63
2023-01-09T05:14:28.506Z,84.15
2023-01-09T05:16:54.966Z,84.22
2023-01-09T05:19:21.500Z,84.37
2023-01-09T05:21:47.928Z,84.33
2023-01-09T05:24:14.372Z,84.39
2023-01-09T05:26:40.929Z,83.34
2023-01-09T05:29:07.622Z,83.03
2023-01-09T05:31:34.130Z,82.62
2023-01-09T05:34:00.965Z,80.96
2023-01-09T05:36:28.195Z,80.63
2023-01-09T05:38:54.589Z,80.14
2023-01-09T05:41:22.511Z,79.38
2023-01-09T05:43:49.955Z,79.73
2023-01-09T05:46:16.514Z,79.24
2023-01-09T05:48:44.455Z,78.62
2023-01-09T05:51:11.833Z,78.16
2023-01-09T05:53:38.376Z,78.49
2023-01-09T05:56:04.957Z,78.57
2023-01-09T05:58:31.571Z,78.26
2023-01-09T06:00:59.426Z,78.56
2023-01-09T06:03:25.923Z,78.51
2023-01-09T06:05:52.354Z,78.43
2023-01-09T06:08:18.778Z,77.90
2023-01-09T06:10:47.002Z,78.41
2023-01-09T06:13:13.816Z,78.39
2023-01-09T06:15:40.294Z,78.53
2023-01-09T06:18:07.090Z,78.82
2023-01-09T06:20:34.098Z,78.47
2023-01-09T06:25:42.691Z,78.60
2023-01-09T06:28:09.185Z,79.00
2023-01-09T06:30:35.599Z,78.39
2023-01-09T06:33:02.048Z,78.71
2023-01-09T06:35:28.754Z,78.27
2023-01-09T06:37:55.322Z,78.41
2023-01-09T06:40:21.712Z,78.28
2023-01-09T06:42:49.254Z,78.34
2023-01-09T06:45:15.757Z,78.42
2023-01-09T06:47:43.652Z,78.25
2023-01-09T06:50:10.762Z,78.51
2023-01-09T06:52:37.440Z,78.33
2023-01-09T06:55:04.204Z,78.66
2023-01-09T06:57:30.761Z,78.65
2023-01-09T06:59:57.744Z,78.45
2023-01-09T07:02:24.303Z,78.70
2023-01-09T07:04:50.775Z,78.99
2023-01-09T07:07:18.284Z,79.02
2023-01-09T07:09:44.615Z,79.30
2023-01-09T07:12:11.059Z,79.11
2023-01-09T07:14:37.428Z,79.53
2023-01-09T07:17:03.843Z,79.84
2023-01-09T07:19:30.185Z,79.84
2023-01-09T07:21:56.577Z,80.08
2023-01-09T07:24:23.019Z,79.88
2023-01-09T07:26:49.453Z,80.09
2023-01-09T07:32:36.513Z,80.22
2023-01-09T07:35:03.029Z,80.40
2023-01-09T07:37:29.402Z,80.20
2023-01-09T07:39:55.744Z,80.24
2023-01-09T07:42:22.242Z,80.20
2023-01-09T07:44:49.526Z,80.29
2023-01-09T07:47:16.142Z,80.50
2023-01-09T07:49:42.625Z,80.64
2023-01-09T07:52:09.224Z,80.67
2023-01-09T07:54:35.628Z,80.74
2023-01-09T07:57:03.090Z,80.74
2023-01-09T07:59:29.760Z,80.61
2023-01-09T08:01:56.780Z,80.73
2023-01-09T08:04:23.597Z,80.83
2023-01-09T08:06:50.095Z,80.98
2023-01-09T08:09:16.582Z,81.24
2023-01-09T08:11:43.043Z,81.39
2023-01-09T08:14:09.443Z,81.72
2023-01-09T08:16:35.848Z,81.90
2023-01-09T08:19:02.357Z,81.64
2023-01-09T08:21:28.741Z,81.63
2023-01-09T08:23:55.201Z,81.90
2023-01-09T08:26:23.528Z,82.05
2023-01-09T08:28:53.048Z,82.07
2023-01-09T08:31:19.584Z,82.22
2023-01-09T08:33:46.190Z,82.45
2023-01-09T08:36:12.651Z,82.13
2023-01-09T08:38:39.173Z,81.71
2023-01-09T08:41:25.755Z,81.69
2023-01-09T08:44:11.048Z,81.32
2023-01-09T08:46:55.927Z,81.10
2023-01-09T08:49:22.513Z,80.65
2023-01-09T08:51:48.925Z,80.45
2023-01-09T08:54:15.438Z,80.69
2023-01-09T08:56:41.866Z,80.09
2023-01-09T08:59:10.103Z,80.98
2023-01-09T09:01:36.702Z,81.86
2023-01-09T09:04:05.202Z,82.60
2023-01-09T09:06:32.963Z,83.72
2023-01-09T09:09:03.358Z,84.04
2023-01-09T09:11:33.875Z,84.10
2023-01-09T09:14:00.625Z,85.04
2023-01-09T09:16:27.929Z,85.51
2023-01-09T09:18:54.384Z,85.48
2023-01-09T09:21:20.861Z,86.05
2023-01-09T09:23:47.311Z,87.37
2023-01-09T09:26:13.877Z,88.16
2023-01-09T09:28:40.233Z,88.69
2023-01-09T09:31:07.712Z,89.26
2023-01-09T09:33:34.137Z,90.01
2023-01-09T09:36:00.655Z,90.24
2023-01-09T09:38:28.797Z,90.13
2023-01-09T09:41:04.202Z,90.25
2023-01-09T09:44:36.582Z,90.56
2023-01-09T09:47:14.813Z,90.24
2023-01-09T09:49:50.123Z,90.21
2023-01-09T09:53:01.653Z,90.23
2023-01-09T09:55:33.164Z,89.99
2023-01-09T09:58:04.529Z,89.81
2023-01-09T10:00:31.098Z,89.53
2023-01-09T10:03:10.861Z,89.67
2023-01-09T10:05:43.904Z,89.23
2023-01-09T10:08:57.105Z,89.14
2023-01-09T10:11:32.471Z,88.10
2023-01-09T10:14:06.362Z,86.78
2023-01-09T10:17:26.902Z,86.12
2023-01-09T10:20:05.669Z,85.65
2023-01-09T10:22:49.222Z,84.38
2023-01-09T10:25:31.392Z,84.62
2023-01-09T10:28:19.458Z,83.55
2023-01-09T10:30:56.039Z,81.98
2023-01-09T10:33:41.163Z,80.74
2023-01-09T10:36:44.754Z,80.79
2023-01-09T10:39:21.188Z,80.53
2023-01-09T10:42:00.162Z,78.90
2023-01-09T10:44:35.996Z,78.11
2023-01-09T10:47:12.018Z,78.61
2023-01-09T10:49:38.614Z,77.15
2023-01-09T10:52:17.965Z,76.55
2023-01-09T10:54:54.518Z,77.03
2023-01-09T10:57:32.054Z,76.92
2023-01-09T10:59:58.524Z,75.71
2023-01-09T11:02:29.617Z,76.06
2023-01-09T11:04:56.038Z,76.31
2023-01-09T11:07:30.614Z,76.29
2023-01-09T11:10:08.107Z,75.74
2023-01-09T11:12:37.239Z,76.24
2023-01-09T11:15:15.720Z,75.41
2023-01-09T11:17:45.574Z,75.99
2023-01-09T11:20:32.579Z,75.91
2023-01-09T11:22:59.325Z,76.37
2023-01-09T11:25:28.498Z,76.34
2023-01-09T11:28:01.206Z,76.15
2023-01-09T11:30:28.763Z,76.32
2023-01-09T11:32:57.797Z,75.80
2023-01-09T11:35:34.216Z,76.04
2023-01-09T11:38:21.535Z,75.88
2023-01-09T11:40:58.760Z,75.60
2023-01-09T11:43:38.720Z,76.02
2023-01-09T11:46:08.014Z,75.10
2023-01-09T11:48:38.236Z,74.87
2023-01-09T11:51:22.526Z,75.36
2023-01-09T11:54:12.336Z,75.19
2023-01-09T11:56:40.790Z,74.66
2023-01-09T11:59:22.761Z,74.73
2023-01-09T12:02:17.318Z,74.58
2023-01-09T12:05:12.301Z,75.00
2023-01-09T12:08:15.014Z,74.38
2023-01-09T12:10:52.959Z,74.73
2023-01-09T12:13:38.459Z,73.76
2023-01-09T12:16:38.552Z,74.26
2023-01-09T12:19:45.277Z,74.22
2023-01-09T12:22:36.251Z,73.54
2023-01-09T12:25:26.094Z,73.81
2023-01-09T12:28:39.783Z,73.56
2023-01-09T12:31:27.542Z,73.98
2023-01-09T12:34:27.622Z,74.16
2023-01-09T12:37:23.032Z,74.73
2023-01-09T12:39:52.043Z,75.00
2023-01-09T12:42:43.043Z,75.05
2023-01-09T12:45:34.261Z,75.29
2023-01-09T12:48:19.699Z,75.93
2023-01-09T12:51:13.799Z,76.56
2023-01-09T12:53:51.267Z,76.59
2023-01-09T12:56:26.178Z,76.83
2023-01-09T12:59:00.328Z,76.19
2023-01-09T13:01:38.719Z,76.47
2023-01-09T13:04:37.245Z,76.21
2023-01-09T13:07:12.163Z,75.69
2023-01-09T13:09:47.340Z,76.01
2023-01-09T13:12:21.591Z,75.83
2023-01-09T13:14:59.435Z,75.57
2023-01-09T13:17:42.454Z,75.61
2023-01-09T13:20:22.604Z,75.85
2023-01-09T13:22:52.293Z,75.76
2023-01-09T13:25:18.972Z,76.38
2023-01-09T13:27:56.110Z,76.14
2023-01-09T13:30:51.463Z,76.31
2023-01-09T13:33:31.962Z,76.32
2023-01-09T13:36:00.056Z,76.21
2023-01-09T13:38:29.323Z,76.68
2023-01-09T13:41:26.523Z,76.43
2023-01-09T13:43:55.652Z,76.77
2023-01-09T13:46:23.181Z,77.03
2023-01-09T13:48:49.742Z,76.89
2023-01-09T13:51:36.443Z,76.73
2023-01-09T13:54:03.267Z,76.97
2023-01-09T13:56:30.007Z,77.24
2023-01-09T13:58:59.270Z,77.27
2023-01-09T14:01:28.472Z,77.14
2023-01-09T14:04:14.833Z,76.75
2023-01-09T14:06:41.546Z,76.90
2023-01-09T14:09:19.612Z,76.01
2023-01-09T14:11:47.293Z,75.86
2023-01-09T14:14:27.075Z,75.81
2023-01-09T14:16:53.676Z,75.71
2023-01-09T14:19:33.534Z,75.63
2023-01-09T14:22:00.865Z,75.39
2023-01-09T14:24:30.074Z,75.28
2023-01-09T14:26:59.561Z,75.19
2023-01-09T14:29:29.254Z,75.07
2023-01-09T14:32:23.767Z,75.38
2023-01-09T14:34:58.615Z,75.06
2023-01-09T14:37:28.520Z,75.43
2023-01-09T14:39:56.505Z,75.42
2023-01-09T14:42:27.310Z,75.04
2023-01-09T14:45:06.541Z,75.24
2023-01-09T14:47:52.100Z,75.85
2023-01-09T14:50:36.760Z,75.75
2023-01-09T14:53:08.062Z,75.89
2023-01-09T14:55:58.309Z,76.02
2023-01-09T14:58:33.324Z,76.04
2023-01-09T15:01:25.474Z,75.81
2023-01-09T15:04:01.350Z,75.75
2023-01-09T15:06:30.884Z,75.68
2023-01-09T15:09:08.111Z,75.64
2023-01-09T15:11:39.208Z,75.53
2023-01-09T15:14:06.446Z,75.68
2023-01-09T15:16:33.099Z,75.54
2023-01-09T15:19:03.832Z,75.84
2023-01-09T15:21:31.709Z,75.99
2023-01-09T15:24:22.787Z,76.24
2023-01-09T15:26:54.732Z,76.20
2023-01-09T15:29:21.525Z,76.53
2023-01-09T15:31:52.772Z,76.55
2023-01-09T15:34:22.523Z,76.44
2023-01-09T15:36:50.391Z,76.86
2023-01-09T15:39:25.314Z,76.62
2023-01-09T15:42:11.128Z,76.81
2023-01-09T15:44:40.476Z,76.93
2023-01-09T15:47:12.803Z,76.90
2023-01-09T15:49:39.426Z,76.62
2023-01-09T15:52:11.908Z,76.81
2023-01-09T15:54:40.064Z,77.01
2023-01-09T15:57:24.732Z,76.98
2023-01-09T15:59:55.833Z,77.21
2023-01-09T16:02:42.627Z,76.98
2023-01-09T16:05:16.578Z,77.35
2023-01-09T16:07:50.832Z,77.39
2023-01-09T16:10:34.468Z,77.68
2023-01-09T16:13:01.891Z,77.95
2023-01-09T16:15:33.376Z,78.13
2023-01-09T16:18:18.238Z,78.17
2023-01-09T16:20:45.593Z,78.46
2023-01-09T16:23:29.535Z,78.46
2023-01-09T16:26:11.599Z,78.45
2023-01-09T16:28:40.805Z,78.26
2023-01-09T16:31:18.579Z,78.43
2023-01-09T16:33:52.224Z,78.32
2023-01-09T16:36:19.208Z,78.19
2023-01-09T16:38:46.060Z,78.42
2023-01-09T16:41:38.987Z,78.88
2023-01-09T16:44:09.759Z,78.70
2023-01-09T16:46:39.540Z,79.08
2023-01-09T16:49:20.407Z,79.24
2023-01-09T16:51:47.959Z,79.65
2023-01-09T16:54:14.670Z,79.74
2023-01-09T16:56:43.853Z,80.11
2023-01-09T16:59:15.127Z,80.29
2023-01-09T17:01:43.508Z,79.87
2023-01-09T17:04:15.300Z,79.87
2023-01-09T17:06:42.527Z,80.15
2023-01-09T17:09:15.124Z,79.97
2023-01-09T17:11:50.242Z,80.08
2023-01-09T17:14:16.747Z,79.79
2023-01-09T17:16:45.885Z,79.86
2023-01-09T17:19:18.781Z,79.68
2023-01-09T17:21:45.858Z,79.38
2023-01-09T17:24:33.980Z,79.49
2023-01-09T17:27:20.415Z,79.58
2023-01-09T17:29:47.458Z,79.30
2023-01-09T17:32:23.049Z,79.23
2023-01-09T17:34:49.430Z,79.08
2023-01-09T17:37:17.571Z,79.13
2023-01-09T17:39:45.285Z,79.20
2023-01-09T17:42:12.095Z,79.22
2023-01-09T17:44:38.568Z,79.37
2023-01-09T17:47:06.032Z,79.48
2023-01-09T17:49:32.547Z,79.47
2023-01-09T17:51:58.938Z,79.28
2023-01-09T17:54:25.323Z,79.62
2023-01-09T17:56:52.225Z,79.79
2023-01-09T17:59:18.948Z,79.82
2023-01-09T18:01:45.562Z,79.99
2023-01-09T18:04:12.355Z,79.76
2023-01-09T18:06:38.828Z,80.15
2023-01-09T18:09:06.230Z,79.98
2023-01-09T18:11:33.091Z,80.00
2023-01-09T18:13:59.524Z,79.97
2023-01-09T18:16:27.734Z,80.14
2023-01-09T18:18:58.034Z,80.31
2023-01-09T18:21:26.175Z,80.39
2023-01-09T18:23:52.931Z,80.48
2023-01-09T18:26:20.886Z,80.76
2023-01-09T18:28:59.312Z,80.96
2023-01-09T18:31:27.717Z,81.28
2023-01-09T18:33:56.550Z,81.25
2023-01-09T18:36:29.220Z,81.16
2023-01-09T18:38:57.562Z,80.90
2023-01-09T18:41:24.344Z,80.78
2023-01-09T18:43:52.957Z,80.90
2023-01-09T18:46:25.558Z,81.08
2023-01-09T18:48:55.779Z,81.78
2023-01-09T18:51:23.469Z,83.18
2023-01-09T18:53:50.744Z,84.50
2023-01-09T18:57:36.011Z,85.28
2023-01-09T19:00:02.889Z,85.65
2023-01-09T19:02:29.365Z,85.67
2023-01-09T19:04:56.013Z,85.51
2023-01-09T19:07:22.555Z,85.62
2023-01-09T19:09:49.074Z,85.58
2023-01-09T19:12:15.493Z,85.52
2023-01-09T19:14:44.471Z,85.52
2023-01-09T19:17:11.011Z,85.60
2023-01-09T19:19:37.441Z,85.42
2023-01-09T19:22:04.363Z,85.49
2023-01-09T19:24:32.808Z,85.54
2023-01-09T19:27:00.042Z,85.47
2023-01-09T19:29:27.370Z,85.47
2023-01-09T19:31:53.917Z,85.64
2023-01-09T19:34:20.467Z,85.85
2023-01-09T19:36:47.713Z,86.01
2023-01-09T19:39:17.441Z,86.81
2023-01-09T19:41:43.946Z,87.39
2023-01-09T19:44:10.915Z,87.57
2023-01-09T19:46:37.473Z,87.93
2023-01-09T19:49:05.037Z,87.52
2023-01-09T19:51:32.800Z,87.40
2023-01-09T19:56:34.119Z,86.67
2023-01-09T19:59:03.065Z,86.43
2023-01-09T20:01:35.420Z,86.19
2023-01-09T20:04:07.484Z,86.87
2023-01-09T20:06:35.215Z,87.12
2023-01-09T20:09:04.085Z,86.59
2023-01-09T20:11:32.168Z,86.60
2023-01-09T20:13:58.759Z,86.57
2023-01-09T20:16:31.027Z,86.72
2023-01-09T20:18:59.876Z,86.30
2023-01-09T20:21:29.717Z,85.90
2023-01-09T20:24:00.069Z,85.21
2023-01-09T20:26:27.913Z,85.35
2023-01-09T20:28:54.620Z,85.34
2023-01-09T20:31:22.924Z,85.48
2023-01-09T20:33:51.522Z,85.18
2023-01-09T20:36:21.527Z,85.16
2023-01-09T20:38:48.097Z,85.10
2023-01-09T20:41:22.683Z,84.97
2023-01-09T20:43:50.846Z,85.37
2023-01-09T20:46:17.625Z,85.53
2023-01-09T20:48:44.444Z,85.73
2023-01-09T20:51:12.589Z,85.38
2023-01-09T20:53:43.571Z,85.22
2023-01-09T20:56:10.207Z,85.03
2023-01-09T20:58:36.806Z,85.10
2023-01-09T21:01:07.727Z,84.89
2023-01-09T21:03:34.164Z,85.07
2023-01-09T21:06:04.854Z,84.70
2023-01-09T21:08:31.275Z,84.49
2023-01-09T21:10:57.900Z,84.12
2023-01-09T21:13:26.002Z,83.88
2023-01-09T21:15:52.524Z,83.95
2023-01-09T21:18:19.112Z,83.84
2023-01-09T21:20:45.786Z,83.90
2023-01-09T21:23:12.251Z,83.53
2023-01-09T21:25:39.343Z,83.29
2023-01-09T21:28:07.011Z,83.05
2023-01-09T21:30:34.087Z,82.98
2023-01-09T21:33:00.535Z,82.84
2023-01-09T21:35:26.987Z,82.58
2023-01-09T21:37:53.445Z,82.58
2023-01-09T21:40:20.020Z,82.73
2023-01-09T21:43:05.127Z,82.71
2023-01-09T21:45:50.425Z,83.13
2023-01-09T21:48:17.152Z,83.38
2023-01-09T21:50:43.581Z,83.46
2023-01-09T21:53:10.079Z,83.33
2023-01-09T21:55:36.548Z,83.50
2023-01-09T21:58:03.438Z,83.43
2023-01-09T22:00:30.493Z,83.45
2023-01-09T22:02:57.202Z,83.81
2023-01-09T22:05:27.131Z,83.57
2023-01-09T22:07:56.271Z,83.52
2023-01-09T22:10:22.871Z,83.34
2023-01-09T22:13:09.353Z,83.39
2023-01-09T22:15:35.711Z,83.47
2023-01-09T22:18:04.673Z,83.53
2023-01-09T22:20:31.109Z,83.57
2023-01-09T22:22:57.466Z,83.82
2023-01-09T22:25:24.140Z,84.04
2023-01-09T22:27:50.479Z,84.41
2023-01-09T22:30:17.046Z,84.61
2023-01-09T22:32:43.720Z,85.11
2023-01-09T22:35:10.158Z,85.15
2023-01-09T22:37:36.622Z,85.19
2023-01-09T22:40:03.613Z,85.27
2023-01-09T22:42:30.010Z,85.38
2023-01-09T22:44:56.456Z,85.77
2023-01-09T22:47:23.435Z,85.69
2023-01-09T22:49:53.680Z,85.65
2023-01-09T22:52:21.609Z,85.74
2023-01-09T22:54:48.594Z,85.41
2023-01-09T22:57:15.107Z,85.04
2023-01-09T22:59:41.561Z,84.77
2023-01-09T23:02:08.076Z,84.61
2023-01-09T23:04:34.553Z,84.40
2023-01-09T23:07:00.988Z,84.18
2023-01-09T23:09:27.428Z,84.10
2023-01-09T23:12:02.731Z,83.99
2023-01-09T23:14:31.311Z,83.52
2023-01-09T23:16:57.809Z,83.71
2023-01-09T23:19:24.321Z,83.76
2023-01-09T23:21:51.100Z,83.53
2023-01-09T23:24:18.707Z,83.92
2023-01-09T23:26:45.209Z,83.97
2023-01-09T23:29:12.361Z,83.77
2023-01-09T23:31:38.945Z,83.86
2023-01-09T23:34:08.071Z,83.93
2023-01-09T23:36:35.394Z,84.19
2023-01-09T23:39:04.100Z,84.45
2023-01-09T23:41:48.893Z,84.43
2023-01-09T23:44:15.354Z,84.73
2023-01-09T23:46:41.795Z,84.61
2023-01-09T23:49:08.294Z,84.43
2023-01-09T23:51:34.675Z,84.48
2023-01-09T23:54:01.133Z,84.51
2023-01-09T23:56:28.025Z,84.40
2023-01-09T23:58:54.469Z,84.51
